sensor_id;sensor_type;location;lat;lon;timestamp;pressure;altitude;pressure_sealevel;temperature;humidity
84859;BME280;75115;42.984;23.244;2024-02-23T00:02:24;95050.88;;;5.80;64.55
84859;BME280;75115;42.984;23.244;2024-02-23T00:04:50;95049.56;;;5.94;64.16
84859;BME280;75115;42.984;23.244;2024-02-23T00:07:15;95055.22;;;5.97;64.10
84859;BME280;75115;42.984;23.244;2024-02-23T00:09:41;95057.00;;;5.97;65.22
84859;BME280;75115;42.984;23.244;2024-02-23T00:12:06;95059.72;;;5.95;64.88
84859;BME280;75115;42.984;23.244;2024-02-23T00:14:34;95042.59;;;6.04;63.72
84859;BME280;75115;42.984;23.244;2024-02-23T00:17:02;95046.31;;;6.10;64.28
84859;BME280;75115;42.984;23.244;2024-02-23T00:19:30;95042.84;;;6.19;64.07
84859;BME280;75115;42.984;23.244;2024-02-23T00:21:55;95043.88;;;6.26;63.85
84859;BME280;75115;42.984;23.244;2024-02-23T00:24:21;95040.19;;;6.29;64.05
84859;BME280;75115;42.984;23.244;2024-02-23T00:26:47;95030.41;;;6.32;63.30
84859;BME280;75115;42.984;23.244;2024-02-23T00:29:13;95034.28;;;6.36;63.06
84859;BME280;75115;42.984;23.244;2024-02-23T00:31:39;95027.94;;;6.31;63.47
84859;BME280;75115;42.984;23.244;2024-02-23T00:34:06;95018.16;;;6.34;64.07
84859;BME280;75115;42.984;23.244;2024-02-23T00:36:35;95021.69;;;6.33;63.90
84859;BME280;75115;42.984;23.244;2024-02-23T00:39:01;95020.53;;;6.28;64.05
84859;BME280;75115;42.984;23.244;2024-02-23T00:41:27;95019.06;;;6.25;63.98
84859;BME280;75115;42.984;23.244;2024-02-23T00:43:53;95024.88;;;6.27;64.48
84859;BME280;75115;42.984;23.244;2024-02-23T00:46:18;95014.72;;;6.25;64.56
84859;BME280;75115;42.984;23.244;2024-02-23T00:48:43;95020.91;;;6.33;64.01
84859;BME280;75115;42.984;23.244;2024-02-23T00:51:09;95009.97;;;6.39;63.56
84859;BME280;75115;42.984;23.244;2024-02-23T00:53:34;95016.91;;;6.38;63.81
84859;BME280;75115;42.984;23.244;2024-02-23T00:55:59;95004.22;;;6.45;63.64
84859;BME280;75115;42.984;23.244;2024-02-23T00:58:25;95014.53;;;6.45;63.88
84859;BME280;75115;42.984;23.244;2024-02-23T01:00:51;95018.84;;;6.44;64.00
84859;BME280;75115;42.984;23.244;2024-02-23T01:03:16;95008.38;;;6.38;64.55
84859;BME280;75115;42.984;23.244;2024-02-23T01:05:41;95010.28;;;6.36;64.01
84859;BME280;75115;42.984;23.244;2024-02-23T01:08:07;95013.97;;;6.33;64.39
84859;BME280;75115;42.984;23.244;2024-02-23T01:10:33;95011.69;;;6.30;65.00
84859;BME280;75115;42.984;23.244;2024-02-23T01:12:58;95000.38;;;6.23;64.88
84859;BME280;75115;42.984;23.244;2024-02-23T01:15:24;95001.50;;;6.20;65.54
84859;BME280;75115;42.984;23.244;2024-02-23T01:17:49;94994.59;;;6.21;65.53
84859;BME280;75115;42.984;23.244;2024-02-23T01:20:14;94994.94;;;6.26;65.38
84859;BME280;75115;42.984;23.244;2024-02-23T01:22:40;94982.09;;;6.34;65.09
84859;BME280;75115;42.984;23.244;2024-02-23T01:25:06;94990.50;;;6.36;64.95
84859;BME280;75115;42.984;23.244;2024-02-23T01:27:31;94979.81;;;6.31;65.36
84859;BME280;75115;42.984;23.244;2024-02-23T01:29:56;94981.09;;;6.27;65.29
84859;BME280;75115;42.984;23.244;2024-02-23T01:32:22;94972.25;;;6.30;65.55
84859;BME280;75115;42.984;23.244;2024-02-23T01:34:48;94980.19;;;6.36;65.71
84859;BME280;75115;42.984;23.244;2024-02-23T01:37:13;94988.41;;;6.40;65.62
84859;BME280;75115;42.984;23.244;2024-02-23T01:39:39;94985.81;;;6.40;65.50
84859;BME280;75115;42.984;23.244;2024-02-23T01:42:04;94976.53;;;6.47;65.68
84859;BME280;75115;42.984;23.244;2024-02-23T01:44:29;94975.25;;;6.51;65.42
84859;BME280;75115;42.984;23.244;2024-02-23T01:46:55;94978.69;;;6.60;64.86
84859;BME280;75115;42.984;23.244;2024-02-23T01:49:20;94976.41;;;6.57;65.22
84859;BME280;75115;42.984;23.244;2024-02-23T01:51:48;94973.22;;;6.63;64.62
84859;BME280;75115;42.984;23.244;2024-02-23T01:54:14;94982.72;;;6.62;64.89
84859;BME280;75115;42.984;23.244;2024-02-23T01:56:40;94969.97;;;6.61;65.86
84859;BME280;75115;42.984;23.244;2024-02-23T01:59:06;94964.38;;;6.65;65.12
84859;BME280;75115;42.984;23.244;2024-02-23T02:01:31;94953.72;;;6.60;65.24
84859;BME280;75115;42.984;23.244;2024-02-23T02:03:58;94958.56;;;6.63;65.00
84859;BME280;75115;42.984;23.244;2024-02-23T02:06:24;94974.03;;;6.63;65.16
84859;BME280;75115;42.984;23.244;2024-02-23T02:08:50;94957.44;;;6.58;65.23
84859;BME280;75115;42.984;23.244;2024-02-23T02:11:15;94961.75;;;6.57;65.64
84859;BME280;75115;42.984;23.244;2024-02-23T02:13:41;94974.00;;;6.55;65.11
84859;BME280;75115;42.984;23.244;2024-02-23T02:16:06;94965.28;;;6.56;65.58
84859;BME280;75115;42.984;23.244;2024-02-23T02:18:32;94965.81;;;6.60;65.55
84859;BME280;75115;42.984;23.244;2024-02-23T02:20:57;94971.47;;;6.63;65.68
84859;BME280;75115;42.984;23.244;2024-02-23T02:23:24;94971.63;;;6.62;65.41
84859;BME280;75115;42.984;23.244;2024-02-23T02:25:58;94973.38;;;6.61;66.25
84859;BME280;75115;42.984;23.244;2024-02-23T02:28:25;94982.41;;;6.65;65.83
84859;BME280;75115;42.984;23.244;2024-02-23T02:30:51;94967.91;;;6.64;65.74
84859;BME280;75115;42.984;23.244;2024-02-23T02:33:18;94975.94;;;6.61;65.97
84859;BME280;75115;42.984;23.244;2024-02-23T02:35:43;94974.19;;;6.62;66.19
84859;BME280;75115;42.984;23.244;2024-02-23T02:38:10;94978.72;;;6.68;65.79
84859;BME280;75115;42.984;23.244;2024-02-23T02:40:35;94975.88;;;6.79;65.39
84859;BME280;75115;42.984;23.244;2024-02-23T02:43:01;94969.28;;;6.85;64.86
84859;BME280;75115;42.984;23.244;2024-02-23T02:45:26;94977.84;;;6.93;64.96
84859;BME280;75115;42.984;23.244;2024-02-23T02:47:51;94971.59;;;6.96;64.86
84859;BME280;75115;42.984;23.244;2024-02-23T02:50:17;94978.50;;;6.95;64.78
84859;BME280;75115;42.984;23.244;2024-02-23T02:52:42;94980.72;;;6.90;65.30
84859;BME280;75115;42.984;23.244;2024-02-23T02:55:08;94979.91;;;6.90;64.92
84859;BME280;75115;42.984;23.244;2024-02-23T02:57:34;94989.59;;;6.88;65.60
84859;BME280;75115;42.984;23.244;2024-02-23T03:00:02;94979.91;;;6.90;65.18
84859;BME280;75115;42.984;23.244;2024-02-23T03:02:30;94980.22;;;6.87;65.02
84859;BME280;75115;42.984;23.244;2024-02-23T03:04:55;94980.91;;;6.89;65.35
84859;BME280;75115;42.984;23.244;2024-02-23T03:07:21;94984.75;;;6.85;65.36
84859;BME280;75115;42.984;23.244;2024-02-23T03:09:46;94981.97;;;6.78;65.67
84859;BME280;75115;42.984;23.244;2024-02-23T03:12:12;94985.53;;;6.77;65.87
84859;BME280;75115;42.984;23.244;2024-02-23T03:14:37;94987.31;;;6.85;65.50
84859;BME280;75115;42.984;23.244;2024-02-23T03:17:06;94977.66;;;6.87;65.24
84859;BME280;75115;42.984;23.244;2024-02-23T03:19:32;94981.41;;;6.92;65.11
84859;BME280;75115;42.984;23.244;2024-02-23T03:21:57;94978.81;;;6.92;65.62
84859;BME280;75115;42.984;23.244;2024-02-23T03:24:23;94980.13;;;6.96;65.29
84859;BME280;75115;42.984;23.244;2024-02-23T03:26:48;94979.47;;;7.03;65.49
84859;BME280;75115;42.984;23.244;2024-02-23T03:29:14;94973.53;;;7.02;64.69
84859;BME280;75115;42.984;23.244;2024-02-23T03:31:39;94975.94;;;7.04;64.97
84859;BME280;75115;42.984;23.244;2024-02-23T03:34:05;94981.25;;;7.02;65.29
84859;BME280;75115;42.984;23.244;2024-02-23T03:36:30;94980.44;;;7.02;65.49
84859;BME280;75115;42.984;23.244;2024-02-23T03:38:55;94980.16;;;7.05;65.60
84859;BME280;75115;42.984;23.244;2024-02-23T03:41:21;94987.88;;;7.05;65.85
84859;BME280;75115;42.984;23.244;2024-02-23T03:43:46;94983.53;;;7.05;65.20
84859;BME280;75115;42.984;23.244;2024-02-23T03:46:12;94980.44;;;7.02;65.28
84859;BME280;75115;42.984;23.244;2024-02-23T03:48:37;94985.31;;;7.05;64.88
84859;BME280;75115;42.984;23.244;2024-02-23T03:51:04;94988.22;;;7.10;64.91
84859;BME280;75115;42.984;23.244;2024-02-23T03:53:30;94988.03;;;7.03;65.50
84859;BME280;75115;42.984;23.244;2024-02-23T03:55:56;94992.38;;;7.03;64.94
84859;BME280;75115;42.984;23.244;2024-02-23T03:58:22;94990.28;;;7.06;66.05
84859;BME280;75115;42.984;23.244;2024-02-23T04:00:47;94994.97;;;7.11;65.05
84859;BME280;75115;42.984;23.244;2024-02-23T04:03:13;94981.78;;;7.14;64.84
84859;BME280;75115;42.984;23.244;2024-02-23T04:05:38;94987.91;;;7.13;64.86
84859;BME280;75115;42.984;23.244;2024-02-23T04:08:04;94989.28;;;6.99;65.45
84859;BME280;75115;42.984;23.244;2024-02-23T04:10:29;94993.03;;;7.05;65.05
84859;BME280;75115;42.984;23.244;2024-02-23T04:12:55;94993.84;;;7.05;65.20
84859;BME280;75115;42.984;23.244;2024-02-23T04:15:20;94996.09;;;7.00;65.54
84859;BME280;75115;42.984;23.244;2024-02-23T04:17:46;94997.19;;;6.97;65.01
84859;BME280;75115;42.984;23.244;2024-02-23T04:20:11;94991.06;;;6.98;65.10
84859;BME280;75115;42.984;23.244;2024-02-23T04:22:37;94988.66;;;6.97;65.44
84859;BME280;75115;42.984;23.244;2024-02-23T04:25:04;94996.38;;;6.89;65.79
84859;BME280;75115;42.984;23.244;2024-02-23T04:27:30;94989.59;;;6.88;66.16
84859;BME280;75115;42.984;23.244;2024-02-23T04:29:55;94992.97;;;6.88;65.83
84859;BME280;75115;42.984;23.244;2024-02-23T04:32:21;94993.59;;;6.82;66.26
84859;BME280;75115;42.984;23.244;2024-02-23T04:34:47;95000.50;;;6.82;66.31
84859;BME280;75115;42.984;23.244;2024-02-23T04:37:12;94992.16;;;6.80;66.13
84859;BME280;75115;42.984;23.244;2024-02-23T04:39:37;95000.19;;;6.77;66.33
84859;BME280;75115;42.984;23.244;2024-02-23T04:42:04;94990.53;;;6.79;66.33
84859;BME280;75115;42.984;23.244;2024-02-23T04:44:29;94986.50;;;6.76;66.53
84859;BME280;75115;42.984;23.244;2024-02-23T04:46:55;94991.94;;;6.73;66.79
84859;BME280;75115;42.984;23.244;2024-02-23T04:49:20;94995.19;;;6.75;66.19
84859;BME280;75115;42.984;23.244;2024-02-23T04:51:45;94986.66;;;6.74;66.08
84859;BME280;75115;42.984;23.244;2024-02-23T04:54:11;94995.19;;;6.75;66.44
84859;BME280;75115;42.984;23.244;2024-02-23T04:56:36;94992.59;;;6.75;66.46
84859;BME280;75115;42.984;23.244;2024-02-23T04:59:02;94995.50;;;6.72;66.86
84859;BME280;75115;42.984;23.244;2024-02-23T05:01:28;94989.84;;;6.68;67.00
84859;BME280;75115;42.984;23.244;2024-02-23T05:03:53;94994.81;;;6.62;67.62
84859;BME280;75115;42.984;23.244;2024-02-23T05:06:19;94996.72;;;6.60;67.04
84859;BME280;75115;42.984;23.244;2024-02-23T05:08:44;95002.53;;;6.62;66.96
84859;BME280;75115;42.984;23.244;2024-02-23T05:11:10;95010.28;;;6.62;67.22
84859;BME280;75115;42.984;23.244;2024-02-23T05:13:35;95004.16;;;6.63;67.12
84859;BME280;75115;42.984;23.244;2024-02-23T05:16:02;95004.56;;;6.50;67.64
84859;BME280;75115;42.984;23.244;2024-02-23T05:18:27;95019.41;;;6.56;66.93
84859;BME280;75115;42.984;23.244;2024-02-23T05:20:53;95028.09;;;6.55;67.13
84859;BME280;75115;42.984;23.244;2024-02-23T05:23:18;95026.97;;;6.49;67.62
84859;BME280;75115;42.984;23.244;2024-02-23T05:25:44;95036.00;;;6.54;67.14
84859;BME280;75115;42.984;23.244;2024-02-23T05:28:09;95031.81;;;6.61;66.98
84859;BME280;75115;42.984;23.244;2024-02-23T05:30:34;95030.22;;;6.60;66.75
84859;BME280;75115;42.984;23.244;2024-02-23T05:33:00;95038.00;;;6.68;66.79
84859;BME280;75115;42.984;23.244;2024-02-23T05:35:28;95037.94;;;6.60;67.14
84859;BME280;75115;42.984;23.244;2024-02-23T05:37:54;95031.19;;;6.59;67.06
84859;BME280;75115;42.984;23.244;2024-02-23T05:40:20;95038.97;;;6.67;66.56
84859;BME280;75115;42.984;23.244;2024-02-23T05:42:46;95053.63;;;6.66;66.97
84859;BME280;75115;42.984;23.244;2024-02-23T05:45:11;95044.63;;;6.70;66.51
84859;BME280;75115;42.984;23.244;2024-02-23T05:47:40;95051.53;;;6.70;66.86
84859;BME280;75115;42.984;23.244;2024-02-23T05:50:07;95052.53;;;6.77;66.63
84859;BME280;75115;42.984;23.244;2024-02-23T05:52:34;95043.81;;;6.78;66.55
84859;BME280;75115;42.984;23.244;2024-02-23T05:55:00;95042.72;;;6.81;66.27
84859;BME280;75115;42.984;23.244;2024-02-23T05:57:26;95039.38;;;6.88;66.13
84859;BME280;75115;42.984;23.244;2024-02-23T05:59:52;95040.56;;;7.02;65.60
84859;BME280;75115;42.984;23.244;2024-02-23T06:02:18;95036.59;;;7.24;64.90
84859;BME280;75115;42.984;23.244;2024-02-23T06:04:43;95033.94;;;7.58;64.43
84859;BME280;75115;42.984;23.244;2024-02-23T06:07:09;95043.03;;;8.44;63.38
84859;BME280;75115;42.984;23.244;2024-02-23T06:09:34;95032.56;;;9.86;58.40
84859;BME280;75115;42.984;23.244;2024-02-23T06:12:00;95035.56;;;11.39;53.56
84859;BME280;75115;42.984;23.244;2024-02-23T06:14:25;95042.97;;;12.43;50.18
84859;BME280;75115;42.984;23.244;2024-02-23T06:16:50;95041.69;;;12.88;48.35
84859;BME280;75115;42.984;23.244;2024-02-23T06:19:16;95050.44;;;12.81;46.61
84859;BME280;75115;42.984;23.244;2024-02-23T06:21:41;95053.44;;;12.78;48.40
84859;BME280;75115;42.984;23.244;2024-02-23T06:24:06;95047.00;;;13.43;45.47
84859;BME280;75115;42.984;23.244;2024-02-23T06:26:34;95044.41;;;14.64;42.38
84859;BME280;75115;42.984;23.244;2024-02-23T06:28:59;95044.50;;;15.74;40.86
84859;BME280;75115;42.984;23.244;2024-02-23T06:31:25;95045.28;;;16.69;37.32
84859;BME280;75115;42.984;23.244;2024-02-23T06:33:50;95040.41;;;17.34;36.04
84859;BME280;75115;42.984;23.244;2024-02-23T06:36:17;95029.63;;;18.44;34.77
84859;BME280;75115;42.984;23.244;2024-02-23T06:38:44;95028.41;;;19.81;31.73
84859;BME280;75115;42.984;23.244;2024-02-23T06:41:11;95043.03;;;21.24;30.24
84859;BME280;75115;42.984;23.244;2024-02-23T06:43:36;95031.50;;;22.50;27.89
84859;BME280;75115;42.984;23.244;2024-02-23T06:46:08;95035.34;;;23.54;26.14
84859;BME280;75115;42.984;23.244;2024-02-23T06:48:37;95041.34;;;23.97;24.40
84859;BME280;75115;42.984;23.244;2024-02-23T06:51:04;95035.38;;;24.42;23.98
84859;BME280;75115;42.984;23.244;2024-02-23T06:53:30;95028.44;;;25.07;22.85
84859;BME280;75115;42.984;23.244;2024-02-23T06:55:55;95032.50;;;25.75;21.24
84859;BME280;75115;42.984;23.244;2024-02-23T06:58:21;95033.00;;;25.82;21.89
84859;BME280;75115;42.984;23.244;2024-02-23T07:00:46;95024.34;;;26.10;21.24
84859;BME280;75115;42.984;23.244;2024-02-23T07:03:12;95024.63;;;26.04;21.64
84859;BME280;75115;42.984;23.244;2024-02-23T07:05:40;95027.53;;;26.12;21.81
84859;BME280;75115;42.984;23.244;2024-02-23T07:08:06;95028.47;;;25.87;21.65
84859;BME280;75115;42.984;23.244;2024-02-23T07:10:32;95025.06;;;26.26;21.49
84859;BME280;75115;42.984;23.244;2024-02-23T07:12:57;95028.31;;;26.13;20.97
84859;BME280;75115;42.984;23.244;2024-02-23T07:15:23;95037.19;;;24.98;21.50
84859;BME280;75115;42.984;23.244;2024-02-23T07:17:49;95033.13;;;23.88;23.63
84859;BME280;75115;42.984;23.244;2024-02-23T07:20:15;95030.66;;;22.76;25.31
84859;BME280;75115;42.984;23.244;2024-02-23T07:22:44;95024.78;;;22.69;25.13
84859;BME280;75115;42.984;23.244;2024-02-23T07:25:10;95026.44;;;21.89;26.57
84859;BME280;75115;42.984;23.244;2024-02-23T07:27:35;95034.31;;;22.11;26.11
84859;BME280;75115;42.984;23.244;2024-02-23T07:30:00;95019.22;;;22.98;25.28
84859;BME280;75115;42.984;23.244;2024-02-23T07:32:26;95022.38;;;21.32;27.44
84859;BME280;75115;42.984;23.244;2024-02-23T07:34:52;95024.88;;;20.38;28.40
84859;BME280;75115;42.984;23.244;2024-02-23T07:37:18;95021.81;;;20.58;29.17
84859;BME280;75115;42.984;23.244;2024-02-23T07:39:43;95018.50;;;20.34;28.28
84859;BME280;75115;42.984;23.244;2024-02-23T07:42:08;95015.75;;;19.66;29.83
84859;BME280;75115;42.984;23.244;2024-02-23T07:44:36;95024.28;;;18.39;32.00
84859;BME280;75115;42.984;23.244;2024-02-23T07:47:02;95021.91;;;17.29;34.67
84859;BME280;75115;42.984;23.244;2024-02-23T07:49:28;95031.00;;;16.15;36.41
84859;BME280;75115;42.984;23.244;2024-02-23T07:51:54;95022.22;;;15.06;39.78
84859;BME280;75115;42.984;23.244;2024-02-23T07:54:19;95020.09;;;14.30;41.13
84859;BME280;75115;42.984;23.244;2024-02-23T07:56:45;95024.69;;;13.88;41.86
84859;BME280;75115;42.984;23.244;2024-02-23T07:59:10;95028.56;;;13.44;44.55
84859;BME280;75115;42.984;23.244;2024-02-23T08:01:38;95029.00;;;13.13;45.48
84859;BME280;75115;42.984;23.244;2024-02-23T08:04:05;95035.22;;;12.78;46.65
84859;BME280;75115;42.984;23.244;2024-02-23T08:06:30;95026.50;;;12.92;45.80
84859;BME280;75115;42.984;23.244;2024-02-23T08:08:56;95036.88;;;12.85;44.90
84859;BME280;75115;42.984;23.244;2024-02-23T08:11:21;95024.31;;;12.95;45.67
84859;BME280;75115;42.984;23.244;2024-02-23T08:13:46;95029.03;;;12.79;45.84
84859;BME280;75115;42.984;23.244;2024-02-23T08:16:12;95028.44;;;12.83;46.48
84859;BME280;75115;42.984;23.244;2024-02-23T08:18:37;95032.63;;;12.49;47.60
84859;BME280;75115;42.984;23.244;2024-02-23T08:21:03;95036.56;;;12.39;48.08
84859;BME280;75115;42.984;23.244;2024-02-23T08:23:31;95034.78;;;12.18;47.25
84859;BME280;75115;42.984;23.244;2024-02-23T08:25:56;95035.22;;;12.00;47.69
84859;BME280;75115;42.984;23.244;2024-02-23T08:28:23;95034.50;;;12.06;48.35
84859;BME280;75115;42.984;23.244;2024-02-23T08:30:49;95042.84;;;12.02;47.70
84859;BME280;75115;42.984;23.244;2024-02-23T08:33:14;95049.63;;;12.24;48.51
84859;BME280;75115;42.984;23.244;2024-02-23T08:35:40;95034.09;;;12.31;47.62
84859;BME280;75115;42.984;23.244;2024-02-23T08:38:05;95039.72;;;12.13;47.35
84859;BME280;75115;42.984;23.244;2024-02-23T08:40:31;95034.81;;;12.46;47.50
84859;BME280;75115;42.984;23.244;2024-02-23T08:42:56;95037.84;;;12.78;45.54
84859;BME280;75115;42.984;23.244;2024-02-23T08:45:21;95020.25;;;12.86;45.99
84859;BME280;75115;42.984;23.244;2024-02-23T08:47:47;95026.03;;;12.82;45.20
84859;BME280;75115;42.984;23.244;2024-02-23T08:50:13;95024.75;;;12.71;45.29
84859;BME280;75115;42.984;23.244;2024-02-23T08:52:39;95029.44;;;12.82;46.43
84859;BME280;75115;42.984;23.244;2024-02-23T08:55:05;95030.53;;;12.94;44.50
84859;BME280;75115;42.984;23.244;2024-02-23T08:57:30;95027.66;;;12.83;45.07
84859;BME280;75115;42.984;23.244;2024-02-23T08:59:56;95031.53;;;12.65;44.97
84859;BME280;75115;42.984;23.244;2024-02-23T09:02:26;95033.59;;;12.77;45.07
84859;BME280;75115;42.984;23.244;2024-02-23T09:04:53;95026.06;;;12.88;46.95
84859;BME280;75115;42.984;23.244;2024-02-23T09:07:20;95022.03;;;13.20;44.29
84859;BME280;75115;42.984;23.244;2024-02-23T09:09:46;95025.00;;;13.59;44.35
84859;BME280;75115;42.984;23.244;2024-02-23T09:12:13;95014.03;;;13.70;42.59
84859;BME280;75115;42.984;23.244;2024-02-23T09:14:39;95021.94;;;13.42;43.69
84859;BME280;75115;42.984;23.244;2024-02-23T09:17:06;95015.75;;;13.56;43.70
84859;BME280;75115;42.984;23.244;2024-02-23T09:19:35;95028.75;;;13.36;42.67
84859;BME280;75115;42.984;23.244;2024-02-23T09:22:04;95020.34;;;13.41;43.69
84859;BME280;75115;42.984;23.244;2024-02-23T09:24:30;95013.38;;;13.55;42.58
84859;BME280;75115;42.984;23.244;2024-02-23T09:26:55;95024.63;;;13.62;42.19
84859;BME280;75115;42.984;23.244;2024-02-23T09:29:21;95007.63;;;13.86;40.31
84859;BME280;75115;42.984;23.244;2024-02-23T09:31:47;95002.38;;;13.72;41.12
84859;BME280;75115;42.984;23.244;2024-02-23T09:34:13;95011.78;;;13.60;41.53
84859;BME280;75115;42.984;23.244;2024-02-23T09:36:39;94996.94;;;13.61;40.74
84859;BME280;75115;42.984;23.244;2024-02-23T09:39:04;95001.53;;;13.52;41.54
84859;BME280;75115;42.984;23.244;2024-02-23T09:41:30;94999.78;;;13.72;41.15
84859;BME280;75115;42.984;23.244;2024-02-23T09:43:58;94995.00;;;13.89;41.35
84859;BME280;75115;42.984;23.244;2024-02-23T09:46:25;95010.66;;;13.96;40.64
84859;BME280;75115;42.984;23.244;2024-02-23T09:48:51;94996.63;;;14.17;41.24
84859;BME280;75115;42.984;23.244;2024-02-23T09:51:17;94999.00;;;13.92;41.07
84859;BME280;75115;42.984;23.244;2024-02-23T09:53:43;94988.59;;;14.12;41.09
84859;BME280;75115;42.984;23.244;2024-02-23T09:56:09;94988.00;;;14.10;41.72
84859;BME280;75115;42.984;23.244;2024-02-23T09:58:36;95008.63;;;14.11;40.62
84859;BME280;75115;42.984;23.244;2024-02-23T10:01:03;94988.81;;;14.04;40.69
84859;BME280;75115;42.984;23.244;2024-02-23T10:03:29;94987.22;;;14.16;40.83
84859;BME280;75115;42.984;23.244;2024-02-23T10:05:58;94976.38;;;13.99;40.70
84859;BME280;75115;42.984;23.244;2024-02-23T10:08:23;94987.59;;;14.06;40.73
84859;BME280;75115;42.984;23.244;2024-02-23T10:10:49;94981.56;;;14.06;41.37
84859;BME280;75115;42.984;23.244;2024-02-23T10:13:19;94981.97;;;14.22;41.43
84859;BME280;75115;42.984;23.244;2024-02-23T10:15:46;94975.75;;;14.23;40.29
84859;BME280;75115;42.984;23.244;2024-02-23T10:18:12;94973.53;;;14.14;40.83
84859;BME280;75115;42.984;23.244;2024-02-23T10:20:38;94971.13;;;14.19;40.90
84859;BME280;75115;42.984;23.244;2024-02-23T10:23:04;94966.50;;;13.94;41.25
84859;BME280;75115;42.984;23.244;2024-02-23T10:25:30;94976.75;;;14.03;40.65
84859;BME280;75115;42.984;23.244;2024-02-23T10:27:55;94965.94;;;13.92;41.27
84859;BME280;75115;42.984;23.244;2024-02-23T10:30:21;94962.91;;;13.82;40.46
84859;BME280;75115;42.984;23.244;2024-02-23T10:32:47;94968.53;;;14.06;40.50
84859;BME280;75115;42.984;23.244;2024-02-23T10:35:16;94966.94;;;14.05;41.75
84859;BME280;75115;42.984;23.244;2024-02-23T10:37:48;94955.50;;;14.06;41.59
84859;BME280;75115;42.984;23.244;2024-02-23T10:40:18;94953.28;;;14.03;43.08
84859;BME280;75115;42.984;23.244;2024-02-23T10:42:45;94950.28;;;14.19;41.52
84859;BME280;75115;42.984;23.244;2024-02-23T10:45:17;94953.06;;;14.31;42.05
84859;BME280;75115;42.984;23.244;2024-02-23T10:47:44;94938.44;;;14.10;41.00
84859;BME280;75115;42.984;23.244;2024-02-23T10:50:09;94936.84;;;14.22;42.53
84859;BME280;75115;42.984;23.244;2024-02-23T10:52:38;94928.63;;;14.25;41.78
84859;BME280;75115;42.984;23.244;2024-02-23T10:55:10;94933.81;;;14.32;42.39
84859;BME280;75115;42.984;23.244;2024-02-23T10:57:36;94922.41;;;14.00;41.80
84859;BME280;75115;42.984;23.244;2024-02-23T11:00:04;94923.41;;;14.12;42.04
84859;BME280;75115;42.984;23.244;2024-02-23T11:02:39;94940.22;;;14.36;42.33
84859;BME280;75115;42.984;23.244;2024-02-23T11:05:06;94922.34;;;14.46;40.43
84859;BME280;75115;42.984;23.244;2024-02-23T11:07:38;94919.16;;;14.51;40.52
84859;BME280;75115;42.984;23.244;2024-02-23T11:10:04;94915.50;;;14.45;42.43
84859;BME280;75115;42.984;23.244;2024-02-23T11:12:30;94919.75;;;14.59;42.09
84859;BME280;75115;42.984;23.244;2024-02-23T11:15:00;94908.28;;;14.60;41.15
84859;BME280;75115;42.984;23.244;2024-02-23T11:17:33;94895.00;;;14.75;41.15
84859;BME280;75115;42.984;23.244;2024-02-23T11:20:03;94897.75;;;14.87;40.22
84859;BME280;75115;42.984;23.244;2024-02-23T11:22:35;94898.94;;;14.97;40.03
84859;BME280;75115;42.984;23.244;2024-02-23T11:25:03;94888.88;;;14.94;39.77
84859;BME280;75115;42.984;23.244;2024-02-23T11:27:31;94891.88;;;15.05;39.94
84859;BME280;75115;42.984;23.244;2024-02-23T11:30:07;94892.03;;;15.10;39.20
84859;BME280;75115;42.984;23.244;2024-02-23T11:32:41;94878.28;;;14.89;39.18
84859;BME280;75115;42.984;23.244;2024-02-23T11:35:08;94881.44;;;15.05;40.43
84859;BME280;75115;42.984;23.244;2024-02-23T11:37:47;94869.16;;;15.05;40.57
84859;BME280;75115;42.984;23.244;2024-02-23T11:40:13;94873.81;;;14.96;41.05
84859;BME280;75115;42.984;23.244;2024-02-23T11:42:41;94863.78;;;15.00;39.88
84859;BME280;75115;42.984;23.244;2024-02-23T11:45:08;94862.38;;;14.97;39.85
84859;BME280;75115;42.984;23.244;2024-02-23T11:47:33;94855.00;;;14.88;38.75
84859;BME280;75115;42.984;23.244;2024-02-23T11:49:59;94860.78;;;14.96;39.93
84859;BME280;75115;42.984;23.244;2024-02-23T11:52:24;94864.75;;;15.06;40.37
84859;BME280;75115;42.984;23.244;2024-02-23T11:54:50;94847.03;;;15.08;37.53
84859;BME280;75115;42.984;23.244;2024-02-23T11:57:16;94850.81;;;15.12;38.83
84859;BME280;75115;42.984;23.244;2024-02-23T11:59:42;94843.47;;;14.95;38.71
84859;BME280;75115;42.984;23.244;2024-02-23T12:02:07;94851.50;;;15.01;39.62
84859;BME280;75115;42.984;23.244;2024-02-23T12:04:33;94832.63;;;14.98;38.21
84859;BME280;75115;42.984;23.244;2024-02-23T12:06:58;94827.38;;;15.05;38.63
84859;BME280;75115;42.984;23.244;2024-02-23T12:09:25;94836.34;;;14.78;39.16
84859;BME280;75115;42.984;23.244;2024-02-23T12:11:51;94834.50;;;14.85;38.72
84859;BME280;75115;42.984;23.244;2024-02-23T12:14:17;94834.84;;;14.95;38.82
84859;BME280;75115;42.984;23.244;2024-02-23T12:16:43;94842.28;;;14.98;38.74
84859;BME280;75115;42.984;23.244;2024-02-23T12:19:08;94839.81;;;15.03;38.77
84859;BME280;75115;42.984;23.244;2024-02-23T12:21:37;94822.69;;;15.14;38.82
84859;BME280;75115;42.984;23.244;2024-02-23T12:24:05;94832.28;;;15.20;38.23
84859;BME280;75115;42.984;23.244;2024-02-23T12:26:34;94811.22;;;15.15;37.51
84859;BME280;75115;42.984;23.244;2024-02-23T12:29:03;94810.59;;;15.19;37.99
84859;BME280;75115;42.984;23.244;2024-02-23T12:31:30;94817.28;;;15.40;37.81
84859;BME280;75115;42.984;23.244;2024-02-23T12:33:57;94812.06;;;15.40;38.00
84859;BME280;75115;42.984;23.244;2024-02-23T12:36:23;94809.94;;;15.31;38.13
84859;BME280;75115;42.984;23.244;2024-02-23T12:38:48;94809.56;;;15.27;38.08
84859;BME280;75115;42.984;23.244;2024-02-23T12:41:14;94813.28;;;15.38;38.50
84859;BME280;75115;42.984;23.244;2024-02-23T12:43:39;94818.44;;;15.51;37.61
84859;BME280;75115;42.984;23.244;2024-02-23T12:46:05;94819.00;;;15.53;36.64
84859;BME280;75115;42.984;23.244;2024-02-23T12:48:31;94806.19;;;15.45;37.42
84859;BME280;75115;42.984;23.244;2024-02-23T12:50:57;94806.78;;;15.47;37.34